Flag for Russia

Past Weather in 54°43'00"N, 20°31'00"E, Russia — Yesterday and Last 2 Weeks

Currently: 45 °F. Sprinkles. Passing clouds. (Weather station: Kaliningrad/Khrabrovo Airport, Russia). See more current weather

Past Weather in 54°43'00"N, 20°31'00"E — Graph

°F

54°43'00"N, 20°31'00"E Temperature Yesterday

Maximum temperature yesterday: 48 °F (at 1:00 pm)
Minimum temperature yesterday: 37 °F (at 12:00 am)
Average temperature yesterday: 42 °F

High & Low Weather Summary for the Past Weeks

 TemperatureHumidityPressure
High55 °F (Feb 16, 2:30 pm)100% (Feb 10, 10:00 pm)30.54 "Hg (Feb 10, 10:00 pm)
Low30 °F (Feb 18, 6:30 am)56% (Feb 18, 3:00 pm)29.24 "Hg (Feb 23, 4:30 am)
Average40 °F93%29.85 "Hg
* Reported Feb 10 10:00 pm — Feb 25 10:30 pm, 54°43'00"N, 20°31'00"E. Weather by CustomWeather, © 2024

Note: Actual official high and low records may vary slightly from our data, if they occured in-between our weather recording intervals... More about our weather records

54°43'00"N, 20°31'00"E Weather History for the Previous 24 Hours

Scroll right to see more
 ConditionsComfort  
Time TempWeatherWind HumidityBarometerVisibility
10:30 pm
Sun, Feb 25
45 °FSprinkles. Passing clouds.8 mph93%29.77 "Hg6 mi
10:00 pm43 °FPassing clouds.3 mph87%29.74 "HgN/A
9:30 pm41 °FPassing clouds.3 mph87%29.74 "HgN/A
9:00 pm41 °FPassing clouds.6 mph87%29.77 "HgN/A
8:30 pm43 °FPassing clouds.6 mph81%29.77 "HgN/A
8:00 pm41 °FPassing clouds.6 mph87%29.77 "HgN/A
7:30 pm41 °FClear.3 mph87%29.80 "Hg10 mi
7:00 pm43 °FSunny.6 mph81%29.80 "Hg10 mi
6:30 pm43 °FSunny.3 mph81%29.80 "Hg10 mi
6:00 pm43 °FSunny.6 mph87%29.80 "Hg10 mi
5:30 pm45 °FSunny.3 mph81%29.80 "Hg10 mi
5:00 pm46 °FSunny.6 mph76%29.80 "Hg10 mi
4:30 pm48 °FSunny.6 mph71%29.80 "Hg10 mi
3:30 pm48 °FPassing clouds.8 mph76%29.83 "HgN/A
3:00 pm48 °FPassing clouds.8 mph71%29.83 "HgN/A
2:30 pm48 °FPassing clouds.8 mph71%29.83 "HgN/A
2:00 pm48 °FPassing clouds.8 mph76%29.83 "HgN/A
1:30 pm48 °FSunny.10 mph71%29.86 "Hg10 mi
1:00 pm48 °FPassing clouds.8 mph71%29.86 "HgN/A
12:30 pm46 °FPassing clouds.8 mph82%29.86 "HgN/A
12:00 pm46 °FPassing clouds.8 mph76%29.89 "HgN/A
11:30 am45 °FSunny.10 mph81%29.89 "Hg10 mi
11:00 am45 °FPassing clouds.8 mph81%29.89 "HgN/A
10:30 am43 °FPassing clouds.8 mph81%29.89 "HgN/A
10:00 am41 °FPassing clouds.8 mph87%29.92 "HgN/A
9:30 am39 °FPassing clouds.6 mph93%29.92 "HgN/A
9:00 am39 °FSunny.6 mph87%29.89 "Hg10 mi
8:30 am37 °FClear.6 mph93%29.89 "Hg10 mi
8:00 am37 °FPassing clouds.8 mph93%29.89 "HgN/A
7:30 am37 °FClear.8 mph93%29.89 "Hg10 mi
7:00 am37 °FClear.8 mph93%29.89 "Hg10 mi
6:30 am37 °FClear.10 mph93%29.89 "Hg10 mi
6:00 am37 °FPassing clouds.8 mph93%29.89 "HgN/A
5:30 am37 °FClear.8 mph93%29.89 "Hg10 mi
5:00 am37 °FClear.6 mph93%29.89 "Hg10 mi
4:30 am37 °FClear.6 mph93%29.89 "Hg10 mi
3:30 am37 °FClear.8 mph93%29.89 "Hg10 mi
3:00 am37 °FClear.6 mph93%29.89 "Hg10 mi
1:30 am37 °FClear.8 mph100%29.86 "Hg10 mi
1:00 am37 °FClear.8 mph100%29.86 "Hg10 mi
12:30 am37 °FClear.8 mph100%29.86 "Hg10 mi
12:00 am37 °FClear.8 mph100%29.86 "Hg10 mi
Weather by CustomWeather, © 2024

See weather overview